Time;durP1;ratioP1;P1;durP2;ratioP2;P2;SDS_P1;SDS_P2;PMS_P1;PMS_P2;Temp;Humidity;BMP_temperature;BMP_pressure;BME280_temperature;BME280_humidity;BME280_pressure;Samples;Min_cycle;Max_cycle;Signal;HPM_P1;HPM_P2
2021/04/21 00:00:09;;;;;;;11.47;8.67;;;;;;;8.19;83.90;100200.96;636754;222;24838;-76
2021/04/21 00:02:36;;;;;;;11.47;9.43;;;;;;;8.13;84.58;100196.28;642737;222;23829;-76
2021/04/21 00:05:06;;;;;;;11.73;8.83;;;;;;;8.16;83.47;100190.83;654829;217;26940;-76
2021/04/21 00:07:33;;;;;;;8.80;7.90;;;;;;;8.13;83.97;100187.69;645235;222;24797;-76
2021/04/21 00:10:02;;;;;;;10.53;8.50;;;;;;;8.04;83.60;100188.02;647431;219;24791;-76
2021/04/21 00:12:30;;;;;;;8.73;7.83;;;;;;;7.92;83.60;100185.16;636493;223;24822;-76
2021/04/21 00:14:58;;;;;;;10.23;8.20;;;;;;;7.96;83.46;100183.94;657858;217;26337;-76
2021/04/21 00:17:26;;;;;;;10.23;8.43;;;;;;;7.70;83.84;100180.46;653095;216;24736;-76
2021/04/21 00:19:54;;;;;;;9.70;8.20;;;;;;;7.68;85.42;100190.13;658018;217;24769;-76
2021/04/21 00:22:22;;;;;;;9.23;8.23;;;;;;;7.59;84.17;100183.11;654394;217;24858;-76
2021/04/21 00:24:50;;;;;;;12.50;9.70;;;;;;;7.48;84.48;100180.61;655881;217;24814;-76
2021/04/21 00:27:18;;;;;;;14.20;9.00;;;;;;;7.24;86.15;100182.13;651436;217;24778;-76
2021/04/21 00:29:46;;;;;;;9.30;8.00;;;;;;;7.15;87.02;100193.21;655958;217;24769;-76
2021/04/21 00:32:15;;;;;;;11.33;8.13;;;;;;;7.06;87.84;100197.84;650953;217;24747;-76
2021/04/21 00:34:43;;;;;;;11.63;8.30;;;;;;;7.25;87.32;100192.00;657496;217;25885;-76
2021/04/21 00:37:11;;;;;;;11.70;7.90;;;;;;;7.18;85.09;100181.79;649061;217;24747;-76
2021/04/21 00:39:40;;;;;;;10.10;8.17;;;;;;;7.26;85.74;100174.24;654324;217;24758;-76
2021/04/21 00:42:08;;;;;;;9.77;7.07;;;;;;;7.37;84.10;100174.20;650453;217;24763;-76
2021/04/21 00:44:41;;;;;;;10.97;8.40;;;;;;;7.28;84.06;100169.77;653658;217;24821;-75
2021/04/21 00:47:05;;;;;;;7.40;6.47;;;;;;;7.24;83.48;100164.50;634504;222;24788;-76
2021/04/21 00:49:37;;;;;;;9.48;8.15;;;;;;;7.98;81.59;100155.66;648299;217;43440;-76
2021/04/21 00:52:06;;;;;;;11.73;9.07;;;;;;;7.56;82.00;100153.61;637480;222;23671;-76
2021/04/21 00:54:34;;;;;;;9.70;8.07;;;;;;;7.35;83.56;100160.09;641704;222;24919;-76
2021/04/21 00:57:05;;;;;;;10.67;9.10;;;;;;;7.28;84.27;100163.30;649822;218;24766;-75
2021/04/21 00:59:35;;;;;;;11.37;8.10;;;;;;;7.24;84.62;100168.38;645895;222;24761;-76
2021/04/21 01:02:03;;;;;;;9.30;7.97;;;;;;;7.04;84.69;100174.70;646176;222;24880;-76
2021/04/21 01:04:31;;;;;;;10.80;8.53;;;;;;;6.93;85.62;100176.50;651787;217;25184;-76
2021/04/21 01:06:59;;;;;;;9.53;8.50;;;;;;;7.42;83.15;100159.92;650959;217;32518;-75
2021/04/21 01:09:27;;;;;;;10.00;8.60;;;;;;;7.47;82.19;100158.75;650005;217;32724;-76
2021/04/21 01:11:55;;;;;;;14.00;10.73;;;;;;;6.62;87.11;100175.53;641253;222;23715;-76
2021/04/21 01:14:23;;;;;;;13.35;10.80;;;;;;;6.86;86.70;100174.86;636995;222;32760;-76
2021/04/21 01:16:52;;;;;;;14.90;10.47;;;;;;;6.44;91.21;100191.98;643855;222;23684;-76
2021/04/21 01:19:21;;;;;;;11.20;9.53;;;;;;;6.27;91.35;100185.55;644259;222;24812;-76
2021/04/21 01:21:49;;;;;;;13.13;9.30;;;;;;;6.43;91.33;100188.58;646072;221;25050;-75
2021/04/21 01:24:21;;;;;;;11.90;9.33;;;;;;;6.44;91.69;100185.05;641492;222;24806;-76
2021/04/21 01:26:52;;;;;;;12.97;8.13;;;;;;;6.37;90.33;100182.61;642960;221;26057;-76
2021/04/21 01:29:20;;;;;;;11.63;8.63;;;;;;;6.40;92.40;100181.07;645676;221;24831;-75
2021/04/21 01:31:48;;;;;;;11.30;8.00;;;;;;;6.12;92.77;100185.43;648615;220;24859;-78
2021/04/21 01:34:17;;;;;;;10.50;8.20;;;;;;;6.04;92.63;100182.59;644573;220;24802;-78
2021/04/21 01:36:46;;;;;;;10.13;7.80;;;;;;;5.88;93.08;100175.17;639637;222;24818;-78
2021/04/21 01:39:14;;;;;;;12.43;8.60;;;;;;;5.92;93.88;100184.38;642596;221;26936;-75
2021/04/21 01:41:42;;;;;;;15.20;8.37;;;;;;;5.89;93.05;100181.50;646698;221;24815;-75
2021/04/21 01:44:10;;;;;;;12.53;9.00;;;;;;;6.07;92.81;100183.68;653070;217;27968;-76
2021/04/21 01:46:38;;;;;;;10.13;8.83;;;;;;;6.06;91.95;100176.41;641237;221;26929;-75
2021/04/21 01:49:09;;;;;;;10.60;8.60;;;;;;;6.10;91.82;100181.67;635066;221;24788;-76
2021/04/21 01:51:37;;;;;;;10.57;9.23;;;;;;;6.28;90.30;100170.40;645341;221;30293;-75
2021/04/21 01:54:07;;;;;;;14.63;8.53;;;;;;;6.10;90.30;100175.70;645286;220;24804;-76
2021/04/21 01:56:37;;;;;;;11.30;8.90;;;;;;;6.24;90.55;100170.29;637546;222;24813;-76
2021/04/21 01:59:09;;;;;;;10.97;9.13;;;;;;;6.27;89.91;100176.97;649267;219;32498;-75
2021/04/21 02:01:41;;;;;;;14.00;8.97;;;;;;;6.33;89.32;100176.48;642543;222;24961;-75
2021/04/21 02:04:14;;;;;;;9.87;8.20;;;;;;;6.32;88.99;100175.66;644109;220;24828;-76
2021/04/21 02:06:49;;;;;;;9.80;8.37;;;;;;;6.23;89.90;100178.98;638443;222;24796;-75
2021/04/21 02:09:23;;;;;;;11.83;9.07;;;;;;;6.06;91.74;100188.02;644049;221;24806;-75
2021/04/21 02:11:53;;;;;;;10.47;8.40;;;;;;;6.08;91.25;100186.14;644922;222;26031;-76
2021/04/21 02:14:24;;;;;;;10.40;9.30;;;;;;;6.21;90.15;100183.45;652423;218;24764;-76
2021/04/21 02:16:55;;;;;;;13.53;8.60;;;;;;;6.04;89.72;100178.73;640036;222;24809;-75
2021/04/21 02:19:32;;;;;;;11.07;8.43;;;;;;;6.07;89.91;100179.80;644496;222;27025;-75
2021/04/21 02:22:03;;;;;;;14.27;9.37;;;;;;;5.63;93.41;100187.79;647921;218;26030;-75
2021/04/21 02:24:32;;;;;;;14.93;10.30;;;;;;;5.80;93.99;100187.38;651460;217;24782;-76
2021/04/21 02:27:01;;;;;;;20.23;10.47;;;;;;;5.85;92.98;100178.80;646365;221;26897;-75
2021/04/21 02:29:32;;;;;;;12.97;9.97;;;;;;;6.07;92.68;100174.64;648598;217;27984;-75
2021/04/21 02:32:04;;;;;;;15.57;10.77;;;;;;;6.14;92.37;100169.34;659359;217;29053;-76
2021/04/21 02:34:33;;;;;;;13.33;9.93;;;;;;;6.30;90.72;100159.94;642071;221;24825;-75
2021/04/21 02:37:01;;;;;;;13.70;10.70;;;;;;;6.41;90.26;100153.48;643652;222;26968;-75
2021/04/21 02:39:31;;;;;;;12.20;9.67;;;;;;;6.22;89.94;100159.27;630955;224;24845;-76
2021/04/21 02:41:59;;;;;;;11.07;9.03;;;;;;;6.30;88.81;100156.07;640352;222;26955;-75
2021/04/21 02:44:29;;;;;;;12.47;9.40;;;;;;;5.55;88.06;100157.89;645718;221;24849;-75
2021/04/21 02:46:57;;;;;;;14.63;10.53;;;;;;;5.45;88.81;100169.34;648396;221;24795;-75
2021/04/21 02:49:33;;;;;;;14.40;11.13;;;;;;;5.09;91.24;100185.77;649237;218;24794;-75
2021/04/21 02:52:04;;;;;;;17.13;11.03;;;;;;;5.00;95.12;100194.16;652468;218;24798;-75
2021/04/21 02:54:35;;;;;;;15.10;11.07;;;;;;;4.93;95.96;100198.94;641242;221;24799;-78
2021/04/21 02:57:05;;;;;;;13.53;9.90;;;;;;;4.69;97.14;100188.61;652826;218;25018;-75
2021/04/21 02:59:33;;;;;;;14.80;10.80;;;;;;;4.68;97.57;100177.95;644536;221;24838;-76
2021/04/21 03:02:05;;;;;;;13.43;9.87;;;;;;;4.75;97.50;100185.58;636535;221;27966;-75
2021/04/21 03:04:36;;;;;;;12.80;9.43;;;;;;;4.98;96.87;100173.65;639804;221;24822;-76
2021/04/21 03:07:04;;;;;;;13.33;10.67;;;;;;;5.25;95.70;100172.59;640368;221;24821;-75
2021/04/21 03:09:34;;;;;;;16.27;11.53;;;;;;;5.21;93.91;100173.28;651097;219;24769;-76
2021/04/21 03:12:02;;;;;;;13.10;10.23;;;;;;;5.04;92.13;100184.79;637201;222;27024;-76
2021/04/21 03:14:30;;;;;;;13.37;9.83;;;;;;;4.52;95.84;100183.00;648692;221;24817;-75
2021/04/21 03:16:58;;;;;;;17.00;11.50;;;;;;;4.66;97.71;100189.30;641656;221;24795;-75
2021/04/21 03:19:26;;;;;;;14.87;10.73;;;;;;;4.59;95.27;100180.34;650437;217;24781;-78
2021/04/21 03:21:54;;;;;;;17.77;11.43;;;;;;;4.65;97.18;100182.03;637374;222;24889;-76
2021/04/21 03:24:22;;;;;;;13.93;11.00;;;;;;;4.81;96.28;100184.34;647262;221;24835;-76
2021/04/21 03:26:50;;;;;;;15.50;11.33;;;;;;;4.55;95.70;100175.06;641051;221;24840;-76
2021/04/21 03:29:19;;;;;;;15.67;10.77;;;;;;;4.71;95.59;100179.48;629831;226;25397;-78
2021/04/21 03:31:47;;;;;;;15.53;10.13;;;;;;;4.69;95.34;100171.86;641634;221;27975;-75
2021/04/21 03:34:15;;;;;;;14.03;9.70;;;;;;;4.63;93.84;100173.56;639425;222;24828;-75
2021/04/21 03:36:43;;;;;;;15.73;11.03;;;;;;;4.65;94.20;100173.02;640924;222;24959;-75
2021/04/21 03:39:11;;;;;;;14.27;10.33;;;;;;;4.81;93.75;100175.33;653367;219;25832;-76
2021/04/21 03:41:39;;;;;;;14.70;10.53;;;;;;;4.55;93.32;100168.16;646676;222;24752;-75
2021/04/21 03:44:07;;;;;;;14.87;10.73;;;;;;;4.39;95.74;100168.88;642928;221;24769;-75
2021/04/21 03:46:35;;;;;;;14.77;11.17;;;;;;;4.44;95.80;100164.21;650246;218;24746;-75
2021/04/21 03:49:03;;;;;;;16.17;12.17;;;;;;;4.48;96.35;100178.51;640938;221;24770;-75
2021/04/21 03:51:31;;;;;;;15.97;11.47;;;;;;;4.45;96.47;100172.30;639054;220;25046;-75
2021/04/21 03:53:59;;;;;;;17.62;13.03;;;;;;;5.10;95.57;100167.27;635545;220;33065;-76
2021/04/21 03:56:27;;;;;;;13.17;11.27;;;;;;;5.05;94.00;100155.50;646221;221;23639;-75
2021/04/21 03:58:55;;;;;;;14.00;10.57;;;;;;;4.99;93.81;100151.27;654783;217;27958;-75
2021/04/21 04:01:23;;;;;;;14.20;10.80;;;;;;;4.87;93.39;100152.98;652880;218;24748;-76
2021/04/21 04:03:51;;;;;;;15.50;10.43;;;;;;;4.70;93.27;100158.52;636640;221;25137;-75
2021/04/21 04:06:21;;;;;;;19.80;12.17;;;;;;;4.56;93.27;100156.09;655350;217;24746;-75
2021/04/21 04:08:50;;;;;;;17.37;11.13;;;;;;;4.51;95.15;100168.02;644012;221;24814;-76
2021/04/21 04:11:18;;;;;;;14.33;10.73;;;;;;;4.57;96.37;100167.58;653708;217;24764;-75
2021/04/21 04:13:46;;;;;;;17.37;12.87;;;;;;;4.70;97.64;100174.80;653132;217;24822;-75
2021/04/21 04:16:14;;;;;;;16.57;12.13;;;;;;;4.78;97.43;100171.66;654888;217;24800;-75
2021/04/21 04:18:42;;;;;;;16.57;11.83;;;;;;;4.82;96.60;100169.70;656135;217;27959;-76
2021/04/21 04:21:10;;;;;;;16.10;12.20;;;;;;;4.88;95.69;100169.25;651422;217;24817;-75
2021/04/21 04:23:39;;;;;;;15.37;12.23;;;;;;;4.90;95.17;100169.50;653496;217;24817;-75
2021/04/21 04:26:07;;;;;;;13.60;10.70;;;;;;;4.90;94.41;100171.25;658618;216;24758;-76
2021/04/21 04:28:35;;;;;;;16.43;12.23;;;;;;;4.76;94.19;100175.63;655462;217;24890;-73
2021/04/21 04:31:03;;;;;;;17.80;14.30;;;;;;;5.16;93.90;100171.95;650474;217;32748;-72
2021/04/21 04:33:31;;;;;;;20.27;13.83;;;;;;;4.80;97.03;100184.45;649724;218;23669;-72
2021/04/21 04:35:59;;;;;;;16.93;13.10;;;;;;;4.92;97.32;100193.86;651185;217;24838;-73
2021/04/21 04:38:27;;;;;;;15.97;12.03;;;;;;;5.03;96.65;100187.48;651564;217;24920;-73
2021/04/21 04:40:54;;;;;;;18.70;11.30;;;;;;;5.09;95.94;100191.39;652647;217;24779;-73
2021/04/21 04:43:22;;;;;;;17.40;12.10;;;;;;;5.24;95.49;100187.70;655937;217;24905;-72
2021/04/21 04:45:51;;;;;;;16.75;13.62;;;;;;;5.89;92.78;100185.38;654384;217;32615;-72
2021/04/21 04:48:19;;;;;;;16.10;12.30;;;;;;;5.48;94.34;100195.38;656687;217;26859;-72
2021/04/21 04:50:47;;;;;;;17.17;12.97;;;;;;;5.57;93.57;100194.23;652153;217;24772;-72
2021/04/21 04:53:16;;;;;;;14.50;12.17;;;;;;;5.49;94.22;100193.16;655893;217;24777;-72
2021/04/21 04:55:44;;;;;;;17.07;11.60;;;;;;;5.41;94.29;100199.36;653766;217;24967;-72
2021/04/21 04:58:12;;;;;;;16.27;11.77;;;;;;;5.39;95.78;100205.09;650029;217;24775;-74
2021/04/21 05:00:44;;;;;;;16.47;10.87;;;;;;;5.52;95.40;100207.13;649512;217;24775;-73
2021/04/21 05:03:12;;;;;;;19.73;14.70;;;;;;;6.22;92.70;100203.16;642631;216;32596;-74
2021/04/21 05:05:40;;;;;;;15.33;11.73;;;;;;;6.00;92.48;100200.55;655933;217;23746;-73
2021/04/21 05:08:08;;;;;;;16.57;12.67;;;;;;;5.98;92.90;100202.44;649695;218;26952;-74
2021/04/21 05:10:37;;;;;;;15.80;11.70;;;;;;;5.91;94.03;100208.08;641173;221;24874;-73
2021/04/21 05:13:05;;;;;;;16.07;11.53;;;;;;;5.99;94.61;100207.48;643987;221;24800;-75
2021/04/21 05:15:43;;;;;;;17.30;12.20;;;;;;;6.11;94.42;100217.35;641689;221;24831;-73
2021/04/21 05:18:26;;;;;;;15.73;10.80;;;;;;;6.35;93.44;100214.67;644105;221;27999;-73
2021/04/21 05:21:08;;;;;;;17.20;11.00;;;;;;;6.42;93.81;100220.52;641165;221;24790;-73
2021/04/21 05:24:18;;;;;;;15.10;11.30;;;;;;;6.72;94.03;100220.36;644153;221;24859;-73
2021/04/21 05:27:26;;;;;;;14.77;11.00;;;;;;;6.99;91.80;100215.59;646951;221;24769;-73
2021/04/21 05:30:06;;;;;;;15.33;12.37;;;;;;;7.62;90.04;100212.64;649730;219;27948;-72
2021/04/21 05:32:42;;;;;;;16.77;12.00;;;;;;;7.94;88.92;100212.56;641365;221;24807;-73
2021/04/21 05:35:25;;;;;;;16.33;12.07;;;;;;;8.00;86.76;100202.97;655866;217;24753;-73
2021/04/21 05:38:22;;;;;;;14.17;10.43;;;;;;;8.15;87.20;100211.69;651169;217;24753;-72
2021/04/21 05:40:56;;;;;;;13.00;10.43;;;;;;;8.43;86.28;100221.86;627689;222;25134;-73
2021/04/21 05:43:45;;;;;;;12.70;10.30;;;;;;;8.51;84.86;100212.96;640481;222;24905;-73
2021/04/21 05:46:45;;;;;;;15.07;11.53;;;;;;;8.69;85.45;100209.25;637607;222;24796;-73
2021/04/21 05:49:23;;;;;;;16.60;12.90;;;;;;;8.91;85.51;100215.04;629445;221;24799;-73
2021/04/21 05:51:56;;;;;;;14.53;11.07;;;;;;;8.85;85.87;100214.27;646799;222;24791;-73
2021/04/21 05:54:36;;;;;;;19.53;12.20;;;;;;;8.87;85.95;100224.05;654101;219;27957;-74
2021/04/21 05:57:16;;;;;;;13.93;11.07;;;;;;;8.98;87.12;100226.98;649464;218;24841;-73
2021/04/21 06:00:02;;;;;;;15.38;13.20;;;;;;;9.39;86.59;100228.51;643966;218;32600;-72
2021/04/21 06:02:30;;;;;;;15.50;11.47;;;;;;;9.30;87.89;100224.16;637559;222;23685;-74
2021/04/21 06:05:06;;;;;;;14.07;11.10;;;;;;;9.34;88.18;100233.78;647361;219;24790;-72
2021/04/21 06:07:33;;;;;;;17.63;12.00;;;;;;;9.47;87.68;100240.81;640915;222;23827;-73
2021/04/21 06:10:06;;;;;;;14.00;11.33;;;;;;;9.49;86.48;100233.70;640344;222;24820;-72
2021/04/21 06:12:34;;;;;;;15.30;11.60;;;;;;;9.22;86.57;100234.39;639728;222;24836;-72
2021/04/21 06:15:02;;;;;;;15.17;10.97;;;;;;;9.04;85.66;100229.53;655520;215;24781;-73
2021/04/21 06:17:30;;;;;;;17.02;11.97;;;;;;;9.37;86.83;100238.21;646835;217;32592;-73
2021/04/21 06:19:58;;;;;;;18.30;12.37;;;;;;;9.37;85.05;100231.72;654817;217;23658;-72
2021/04/21 06:22:28;;;;;;;16.80;11.87;;;;;;;9.40;84.38;100234.04;649582;217;24769;-72
2021/04/21 06:25:14;;;;;;;15.40;12.33;;;;;;;9.43;84.47;100228.59;654454;217;24781;-72
2021/04/21 06:27:42;;;;;;;19.93;13.23;;;;;;;9.81;83.33;100225.59;654794;217;24790;-72
2021/04/21 06:30:12;;;;;;;18.27;13.10;;;;;;;10.16;81.94;100226.75;655382;217;25964;-72
2021/04/21 06:32:40;;;;;;;14.00;11.33;;;;;;;10.13;81.93;100223.92;653134;217;24760;-73
2021/04/21 06:35:09;;;;;;;16.07;12.40;;;;;;;10.15;82.35;100230.31;650176;217;24755;-73
2021/04/21 06:37:37;;;;;;;15.10;11.80;;;;;;;10.09;81.05;100232.97;653739;217;24778;-72
2021/04/21 06:40:06;;;;;;;13.77;11.07;;;;;;;10.25;82.16;100231.11;660428;217;24840;-72
2021/04/21 06:42:34;;;;;;;16.57;11.43;;;;;;;10.61;81.84;100236.77;646620;221;24800;-72
2021/04/21 06:45:02;;;;;;;18.47;11.97;;;;;;;10.88;82.36;100243.75;638746;221;24824;-73
2021/04/21 06:47:30;;;;;;;14.20;11.07;;;;;;;10.79;80.50;100238.11;649394;218;24821;-73
2021/04/21 06:49:59;;;;;;;14.00;10.87;;;;;;;10.43;80.90;100238.51;644128;218;24764;-72
2021/04/21 06:52:34;;;;;;;14.17;11.20;;;;;;;10.55;81.46;100243.02;650943;218;24845;-73
2021/04/21 06:55:04;;;;;;;17.03;12.67;;;;;;;10.69;81.74;100247.25;646514;219;24805;-73
2021/04/21 06:57:32;;;;;;;17.23;10.97;;;;;;;10.66;82.01;100250.15;646207;222;24772;-73
2021/04/21 07:00:05;;;;;;;15.73;11.57;;;;;;;10.95;81.55;100240.87;653910;217;24796;-73
2021/04/21 07:02:36;;;;;;;16.27;13.00;;;;;;;11.14;82.62;100245.64;641849;220;24815;-72
2021/04/21 07:05:05;;;;;;;17.27;12.53;;;;;;;11.18;80.03;100243.06;648576;221;27961;-74
2021/04/21 07:07:34;;;;;;;14.30;11.27;;;;;;;11.47;80.80;100249.34;657193;217;23793;-72
2021/04/21 07:10:02;;;;;;;17.33;11.70;;;;;;;11.70;79.10;100234.08;644742;218;24779;-72
2021/04/21 07:12:30;;;;;;;15.97;12.73;;;;;;;11.63;78.81;100229.94;649777;217;26957;-73
2021/04/21 07:14:58;;;;;;;15.63;11.93;;;;;;;11.64;79.21;100228.15;644439;218;24819;-72
2021/04/21 07:17:26;;;;;;;15.87;12.40;;;;;;;11.92;79.45;100235.38;657083;217;24788;-73
2021/04/21 07:19:54;;;;;;;18.50;13.17;;;;;;;11.75;78.08;100231.82;641176;222;25169;-72
2021/04/21 07:22:22;;;;;;;18.00;14.73;;;;;;;12.15;77.62;100232.59;650944;218;33504;-73
2021/04/21 07:24:50;;;;;;;20.00;14.70;;;;;;;12.70;76.22;100230.88;637989;222;32955;-73
2021/04/21 07:27:20;;;;;;;16.62;14.45;;;;;;;12.85;74.79;100222.77;646034;219;32755;-73
2021/04/21 07:29:46;;;;;;;15.53;12.30;;;;;;;12.49;75.09;100219.55;646649;220;23690;-72
2021/04/21 07:32:19;;;;;;;16.47;13.00;;;;;;;12.21;75.85;100223.33;636551;225;25155;-73
2021/04/21 07:34:56;;;;;;;18.33;13.43;;;;;;;12.54;76.22;100230.83;641774;220;25887;-73
2021/04/21 07:37:32;;;;;;;17.43;13.00;;;;;;;12.77;75.39;100224.04;647709;221;28040;-73
2021/04/21 07:40:00;;;;;;;19.50;12.73;;;;;;;13.31;72.63;100220.58;637467;221;24806;-73
2021/04/21 07:42:28;;;;;;;18.03;12.40;;;;;;;13.44;70.34;100205.72;649744;217;24788;-73
2021/04/21 07:44:56;;;;;;;17.97;13.10;;;;;;;13.41;71.39;100208.18;651401;217;24769;-73
2021/04/21 07:47:24;;;;;;;15.60;11.27;;;;;;;13.54;71.67;100207.69;652495;217;24792;-72
2021/04/21 07:49:55;;;;;;;19.23;12.60;;;;;;;13.62;71.77;100212.89;652269;217;24756;-72
2021/04/21 07:52:23;;;;;;;15.23;12.53;;;;;;;13.63;70.99;100217.95;654412;217;24781;-73
2021/04/21 07:55:04;;;;;;;17.90;12.40;;;;;;;13.75;72.32;100217.62;651733;217;24800;-73
2021/04/21 07:57:32;;;;;;;16.53;12.77;;;;;;;14.19;69.20;100210.16;656117;217;25173;-73
2021/04/21 08:00:00;;;;;;;18.35;14.38;;;;;;;14.77;68.67;100204.53;645832;217;32963;-73
2021/04/21 08:02:30;;;;;;;17.43;13.27;;;;;;;14.36;69.19;100207.02;655630;217;23688;-73
2021/04/21 08:04:57;;;;;;;19.77;12.93;;;;;;;14.15;68.71;100212.30;658050;217;23775;-72
2021/04/21 08:07:27;;;;;;;17.67;12.87;;;;;;;14.26;68.99;100213.26;649941;217;25024;-73
2021/04/21 08:09:55;;;;;;;20.57;13.50;;;;;;;14.54;68.42;100211.55;658243;217;23777;-73
2021/04/21 08:12:23;;;;;;;15.20;12.43;;;;;;;15.03;68.76;100209.94;653037;217;24763;-73
2021/04/21 08:14:51;;;;;;;18.00;12.70;;;;;;;15.18;66.40;100201.65;653917;217;23888;-73
2021/04/21 08:17:19;;;;;;;17.90;12.43;;;;;;;15.67;66.05;100201.28;644215;221;24873;-73
2021/04/21 08:19:46;;;;;;;21.73;13.73;;;;;;;15.64;66.79;100196.41;646916;222;24814;-73
2021/04/21 08:22:14;;;;;;;17.43;12.47;;;;;;;15.56;64.25;100186.77;636297;222;24864;-73
2021/04/21 08:24:43;;;;;;;14.67;11.63;;;;;;;15.56;63.38;100184.64;638947;222;24822;-73
2021/04/21 08:27:12;;;;;;;15.87;12.03;;;;;;;15.80;63.23;100184.44;645613;221;24867;-73
2021/04/21 08:29:40;;;;;;;16.27;12.60;;;;;;;15.50;63.26;100189.30;642061;222;27093;-73
2021/04/21 08:32:09;;;;;;;17.30;12.90;;;;;;;15.86;62.48;100190.27;642499;221;24842;-73
2021/04/21 08:34:37;;;;;;;16.30;12.70;;;;;;;16.11;62.75;100183.45;650325;219;24919;-73
2021/04/21 08:37:05;;;;;;;17.00;12.53;;;;;;;16.18;63.33;100186.95;648979;218;24801;-73
2021/04/21 08:39:33;;;;;;;18.23;13.78;;;;;;;16.46;61.04;100185.30;645075;216;32621;-73
2021/04/21 08:42:01;;;;;;;15.10;11.97;;;;;;;16.51;62.06;100184.27;644204;221;23734;-73
2021/04/21 08:44:32;;;;;;;17.47;13.30;;;;;;;16.76;61.64;100185.28;656173;217;23799;-73
2021/04/21 08:47:00;;;;;;;19.23;11.63;;;;;;;16.42;61.79;100180.11;642069;221;24054;-73
2021/04/21 08:49:27;;;;;;;16.90;12.90;;;;;;;16.42;61.78;100184.05;651934;217;24812;-73
2021/04/21 08:51:55;;;;;;;17.05;13.15;;;;;;;16.59;60.13;100176.26;649185;217;32634;-73
2021/04/21 08:54:23;;;;;;;18.97;12.03;;;;;;;16.76;61.04;100182.16;653175;217;23655;-73
2021/04/21 08:56:51;;;;;;;17.53;12.13;;;;;;;16.99;60.13;100173.27;654279;218;23794;-73
2021/04/21 08:59:19;;;;;;;16.80;12.30;;;;;;;17.08;59.09;100174.28;652438;217;24850;-73
2021/04/21 09:01:48;;;;;;;15.90;11.20;;;;;;;17.06;60.74;100178.10;651753;217;23800;-73
2021/04/21 09:04:16;;;;;;;18.00;12.57;;;;;;;17.37;60.22;100179.08;656597;217;24983;-71
2021/04/21 09:06:45;;;;;;;17.50;11.53;;;;;;;17.72;58.08;100172.87;656490;217;23790;-73
2021/04/21 09:09:12;;;;;;;19.77;13.00;;;;;;;18.08;56.70;100165.30;653940;217;27051;-73
2021/04/21 09:11:40;;;;;;;16.23;11.80;;;;;;;18.28;56.44;100166.70;658774;217;23831;-71
2021/04/21 09:14:08;;;;;;;18.10;12.83;;;;;;;18.08;56.13;100160.03;638871;222;24023;-73
2021/04/21 09:16:36;;;;;;;527.57;69.07;;;;;;;18.26;59.73;100168.21;640099;221;24863;-72
2021/04/21 09:19:10;;;;;;;19.67;13.03;;;;;;;18.69;58.77;100175.89;636943;222;24099;-73
2021/04/21 09:21:38;;;;;;;17.90;13.17;;;;;;;18.34;56.10;100160.16;635567;222;23896;-73
2021/04/21 09:24:11;;;;;;;18.73;13.03;;;;;;;18.73;55.48;100159.20;635564;221;23828;-72
2021/04/21 09:26:39;;;;;;;15.20;12.13;;;;;;;19.06;54.96;100157.41;641394;221;23846;-73
2021/04/21 09:29:07;;;;;;;17.93;12.50;;;;;;;19.32;54.41;100150.02;640368;222;24807;-74
2021/04/21 09:31:35;;;;;;;24.33;14.20;;;;;;;18.77;55.43;100146.73;643704;222;23912;-73
2021/04/21 09:34:10;;;;;;;16.67;12.57;;;;;;;18.62;55.43;100151.33;636013;221;23789;-73
2021/04/21 09:36:38;;;;;;;19.07;14.30;;;;;;;18.81;53.80;100147.13;645313;221;23841;-72
2021/04/21 09:39:10;;;;;;;20.43;14.00;;;;;;;19.36;54.26;100149.91;645255;222;23830;-73
2021/04/21 09:41:39;;;;;;;16.20;12.63;;;;;;;19.69;54.37;100142.48;644689;221;24831;-74
2021/04/21 09:44:15;;;;;;;16.47;11.80;;;;;;;20.11;53.70;100136.66;649911;217;23762;-73
2021/04/21 09:46:42;;;;;;;18.33;12.70;;;;;;;19.57;52.62;100135.73;639947;222;24097;-73
2021/04/21 09:49:29;;;;;;;17.63;12.90;;;;;;;19.08;54.33;100138.24;654146;215;24793;-72
2021/04/21 09:51:57;;;;;;;17.40;13.27;;;;;;;19.51;54.77;100140.45;645659;220;26974;-73
2021/04/21 09:54:31;;;;;;;14.97;12.00;;;;;;;19.77;52.80;100131.72;647942;221;23804;-73
2021/04/21 09:57:06;;;;;;;18.70;13.57;;;;;;;19.52;51.41;100124.42;639881;221;23825;-73
2021/04/21 09:59:34;;;;;;;16.97;12.63;;;;;;;19.78;52.22;100126.73;641609;221;24883;-73
2021/04/21 10:02:02;;;;;;;16.97;11.90;;;;;;;20.12;52.76;100126.40;642066;221;23828;-72
2021/04/21 10:04:31;;;;;;;17.83;12.20;;;;;;;19.97;51.04;100125.85;643749;221;23845;-73
2021/04/21 10:06:58;;;;;;;17.40;12.73;;;;;;;19.69;50.74;100118.73;645141;218;23803;-73
2021/04/21 10:09:29;;;;;;;21.30;12.60;;;;;;;19.60;50.92;100118.66;646005;221;24775;-73
2021/04/21 10:12:17;;;;;;;16.60;12.47;;;;;;;20.38;51.19;100120.70;654341;217;23795;-73
2021/04/21 10:14:45;;;;;;;20.00;13.47;;;;;;;20.70;49.91;100110.50;645656;221;23835;-72
2021/04/21 10:17:13;;;;;;;18.40;12.70;;;;;;;20.56;51.57;100111.61;647691;217;23993;-74
2021/04/21 10:19:42;;;;;;;19.90;12.70;;;;;;;20.07;49.83;100105.61;640781;221;24827;-74
2021/04/21 10:22:12;;;;;;;17.53;12.27;;;;;;;19.85;50.40;100105.91;656374;217;23805;-73
2021/04/21 10:24:40;;;;;;;15.47;11.50;;;;;;;20.75;50.85;100102.72;656527;217;23803;-72
2021/04/21 10:27:08;;;;;;;18.23;11.13;;;;;;;20.84;49.50;100101.16;643762;221;23838;-74
2021/04/21 10:29:37;;;;;;;19.83;12.60;;;;;;;20.88;51.06;100107.11;640974;221;23833;-73
2021/04/21 10:32:05;;;;;;;17.50;11.90;;;;;;;20.63;50.88;100103.11;639651;222;23828;-75
2021/04/21 10:34:33;;;;;;;14.30;10.50;;;;;;;20.27;48.70;100100.23;645242;221;23870;-74
2021/04/21 10:37:01;;;;;;;15.00;10.63;;;;;;;20.16;50.13;100102.53;630926;225;24885;-75
2021/04/21 10:39:30;;;;;;;13.00;9.97;;;;;;;20.28;48.38;100098.72;640963;222;23832;-74
2021/04/21 10:42:02;;;;;;;11.80;9.30;;;;;;;21.07;47.97;100099.22;646462;222;23884;-74
2021/04/21 10:44:31;;;;;;;9.40;8.00;;;;;;;21.67;47.68;100092.35;639276;222;24133;-74
2021/04/21 10:47:00;;;;;;;10.93;9.27;;;;;;;22.27;44.21;100071.28;639227;222;33194;-74
2021/04/21 10:49:36;;;;;;;88.40;18.90;;;;;;;22.25;44.65;100068.05;639918;222;23880;-74
2021/04/21 10:52:11;;;;;;;12.60;9.10;;;;;;;22.41;43.99;100059.46;647163;222;23839;-74
2021/04/21 10:54:39;;;;;;;12.10;9.37;;;;;;;21.23;45.98;100060.31;655872;217;24809;-74
2021/04/21 10:57:17;;;;;;;16.40;9.40;;;;;;;21.39;43.51;100058.96;639487;222;23823;-73
2021/04/21 11:00:06;;;;;;;13.70;10.50;;;;;;;21.57;45.38;100065.09;656307;217;23798;-74
2021/04/21 11:02:43;;;;;;;13.63;10.67;;;;;;;21.43;45.19;100059.64;637752;221;23851;-75
2021/04/21 11:05:11;;;;;;;17.40;11.65;;;;;;;21.26;47.94;100065.22;636724;221;32746;-76
2021/04/21 11:07:39;;;;;;;15.53;10.60;;;;;;;21.29;47.69;100058.97;653566;217;22673;-77
2021/04/21 11:10:08;;;;;;;13.03;10.10;;;;;;;22.05;45.47;100055.06;653354;218;23781;-76
2021/04/21 11:12:53;;;;;;;12.23;10.10;;;;;;;22.49;42.88;100045.06;652058;219;24799;-75
2021/04/21 11:15:35;;;;;;;12.67;9.40;;;;;;;22.75;42.68;100038.02;638116;221;27015;-77
2021/04/21 11:18:23;;;;;;;19.43;11.20;;;;;;;22.39;43.09;100040.33;654469;217;23802;-74
2021/04/21 11:20:55;;;;;;;15.20;10.33;;;;;;;22.31;44.65;100031.36;635066;221;23851;-74
2021/04/21 11:23:34;;;;;;;14.80;10.80;;;;;;;22.72;43.40;100033.70;643834;220;27008;-74
2021/04/21 11:26:27;;;;;;;11.93;8.70;;;;;;;23.38;44.26;100037.36;650730;217;23791;-75
2021/04/21 11:28:55;;;;;;;12.70;10.60;;;;;;;23.10;43.39;100029.31;639998;221;23828;-74
2021/04/21 11:31:23;;;;;;;15.43;11.40;;;;;;;21.98;45.89;100048.22;650099;217;23811;-74